sensor_id;sensor_type;location;lat;lon;timestamp;P1;durP1;ratioP1;P2;durP2;ratioP2
76117;SDS011;64851;50.232;20.364;2023-03-23T00:04:29;13.10;;;6.80;;
76117;SDS011;64851;50.232;20.364;2023-03-23T00:07:09;17.90;;;8.10;;
76117;SDS011;64851;50.232;20.364;2023-03-23T00:10:00;15.30;;;8.40;;
76117;SDS011;64851;50.232;20.364;2023-03-23T00:12:42;14.10;;;6.50;;
76117;SDS011;64851;50.232;20.364;2023-03-23T00:15:23;12.80;;;6.60;;
76117;SDS011;64851;50.232;20.364;2023-03-23T00:18:06;10.30;;;6.10;;
76117;SDS011;64851;50.232;20.364;2023-03-23T00:21:00;11.60;;;6.00;;
76117;SDS011;64851;50.232;20.364;2023-03-23T00:23:33;12.70;;;6.50;;
76117;SDS011;64851;50.232;20.364;2023-03-23T00:26:31;12.40;;;6.60;;
76117;SDS011;64851;50.232;20.364;2023-03-23T00:29:29;11.70;;;6.70;;
76117;SDS011;64851;50.232;20.364;2023-03-23T00:32:23;9.80;;;6.30;;
76117;SDS011;64851;50.232;20.364;2023-03-23T00:35:01;13.90;;;7.00;;
76117;SDS011;64851;50.232;20.364;2023-03-23T00:37:55;13.10;;;7.00;;
76117;SDS011;64851;50.232;20.364;2023-03-23T00:40:49;11.20;;;5.80;;
76117;SDS011;64851;50.232;20.364;2023-03-23T00:43:23;9.80;;;6.00;;
76117;SDS011;64851;50.232;20.364;2023-03-23T00:46:18;8.90;;;6.00;;
76117;SDS011;64851;50.232;20.364;2023-03-23T00:49:12;9.50;;;5.70;;
76117;SDS011;64851;50.232;20.364;2023-03-23T00:51:46;10.70;;;5.90;;
76117;SDS011;64851;50.232;20.364;2023-03-23T00:54:33;13.60;;;6.90;;
76117;SDS011;64851;50.232;20.364;2023-03-23T00:57:08;10.90;;;6.70;;
76117;SDS011;64851;50.232;20.364;2023-03-23T00:59:56;12.40;;;6.70;;
76117;SDS011;64851;50.232;20.364;2023-03-23T01:02:29;11.80;;;7.10;;
76117;SDS011;64851;50.232;20.364;2023-03-23T01:05:16;13.60;;;6.80;;
76117;SDS011;64851;50.232;20.364;2023-03-23T01:10:43;12.00;;;7.40;;
76117;SDS011;64851;50.232;20.364;2023-03-23T01:13:37;12.70;;;7.40;;
76117;SDS011;64851;50.232;20.364;2023-03-23T01:16:10;12.60;;;7.70;;
76117;SDS011;64851;50.232;20.364;2023-03-23T01:18:58;14.90;;;8.20;;
76117;SDS011;64851;50.232;20.364;2023-03-23T01:21:31;15.70;;;9.40;;
76117;SDS011;64851;50.232;20.364;2023-03-23T01:24:18;14.10;;;8.70;;
76117;SDS011;64851;50.232;20.364;2023-03-23T01:27:12;11.90;;;7.70;;
76117;SDS011;64851;50.232;20.364;2023-03-23T01:30:06;14.00;;;8.40;;
76117;SDS011;64851;50.232;20.364;2023-03-23T01:32:41;14.00;;;8.20;;
76117;SDS011;64851;50.232;20.364;2023-03-23T01:35:36;13.30;;;8.60;;
76117;SDS011;64851;50.232;20.364;2023-03-23T01:38:31;15.00;;;8.00;;
76117;SDS011;64851;50.232;20.364;2023-03-23T01:41:05;13.40;;;8.40;;
76117;SDS011;64851;50.232;20.364;2023-03-23T01:43:56;13.80;;;7.80;;
76117;SDS011;64851;50.232;20.364;2023-03-23T01:46:56;12.50;;;6.60;;
76117;SDS011;64851;50.232;20.364;2023-03-23T01:49:50;14.40;;;7.10;;
76117;SDS011;64851;50.232;20.364;2023-03-23T01:52:24;15.10;;;8.30;;
76117;SDS011;64851;50.232;20.364;2023-03-23T01:55:20;15.10;;;8.40;;
76117;SDS011;64851;50.232;20.364;2023-03-23T01:58:14;14.40;;;7.90;;
76117;SDS011;64851;50.232;20.364;2023-03-23T02:00:49;10.80;;;6.80;;
76117;SDS011;64851;50.232;20.364;2023-03-23T02:03:36;11.20;;;6.40;;
76117;SDS011;64851;50.232;20.364;2023-03-23T02:06:09;12.30;;;7.20;;
76117;SDS011;64851;50.232;20.364;2023-03-23T02:08:56;10.20;;;6.80;;
76117;SDS011;64851;50.232;20.364;2023-03-23T02:11:30;15.00;;;7.80;;
76117;SDS011;64851;50.232;20.364;2023-03-23T02:14:24;12.70;;;7.40;;
76117;SDS011;64851;50.232;20.364;2023-03-23T02:25:59;12.70;;;8.10;;
76117;SDS011;64851;50.232;20.364;2023-03-23T02:35:06;15.40;;;8.10;;
76117;SDS011;64851;50.232;20.364;2023-03-23T02:38:02;13.10;;;7.20;;
76117;SDS011;64851;50.232;20.364;2023-03-23T02:40:52;14.20;;;7.70;;
76117;SDS011;64851;50.232;20.364;2023-03-23T02:43:28;12.90;;;6.40;;
76117;SDS011;64851;50.232;20.364;2023-03-23T02:46:19;12.40;;;6.30;;
76117;SDS011;64851;50.232;20.364;2023-03-23T02:48:53;12.80;;;7.40;;
76117;SDS011;64851;50.232;20.364;2023-03-23T02:51:42;9.90;;;6.10;;
76117;SDS011;64851;50.232;20.364;2023-03-23T02:54:18;11.20;;;6.00;;
76117;SDS011;64851;50.232;20.364;2023-03-23T02:57:05;10.90;;;5.70;;
76117;SDS011;64851;50.232;20.364;2023-03-23T02:59:39;12.20;;;7.50;;
76117;SDS011;64851;50.232;20.364;2023-03-23T03:02:33;13.80;;;7.40;;
76117;SDS011;64851;50.232;20.364;2023-03-23T03:05:44;13.90;;;7.90;;
76117;SDS011;64851;50.232;20.364;2023-03-23T03:08:30;14.80;;;7.60;;
76117;SDS011;64851;50.232;20.364;2023-03-23T03:11:28;14.50;;;8.10;;
76117;SDS011;64851;50.232;20.364;2023-03-23T03:14:06;11.00;;;6.60;;
76117;SDS011;64851;50.232;20.364;2023-03-23T03:17:00;14.60;;;7.70;;
76117;SDS011;64851;50.232;20.364;2023-03-23T03:19:40;12.90;;;7.00;;
76117;SDS011;64851;50.232;20.364;2023-03-23T03:25:16;9.40;;;4.90;;
76117;SDS011;64851;50.232;20.364;2023-03-23T03:28:10;16.00;;;8.30;;
76117;SDS011;64851;50.232;20.364;2023-03-23T03:30:43;16.20;;;8.90;;
76117;SDS011;64851;50.232;20.364;2023-03-23T03:33:35;13.40;;;7.50;;
76117;SDS011;64851;50.232;20.364;2023-03-23T03:38:55;11.10;;;7.00;;
76117;SDS011;64851;50.232;20.364;2023-03-23T03:41:37;10.40;;;6.00;;
76117;SDS011;64851;50.232;20.364;2023-03-23T03:44:18;9.40;;;5.40;;
76117;SDS011;64851;50.232;20.364;2023-03-23T03:46:58;12.70;;;7.40;;
76117;SDS011;64851;50.232;20.364;2023-03-23T03:52:25;15.50;;;8.80;;
76117;SDS011;64851;50.232;20.364;2023-03-23T03:55:05;15.60;;;8.60;;
76117;SDS011;64851;50.232;20.364;2023-03-23T03:57:47;14.20;;;8.50;;
76117;SDS011;64851;50.232;20.364;2023-03-23T04:00:28;14.70;;;8.80;;
76117;SDS011;64851;50.232;20.364;2023-03-23T04:03:08;14.60;;;9.00;;
76117;SDS011;64851;50.232;20.364;2023-03-23T04:05:49;16.80;;;8.30;;
76117;SDS011;64851;50.232;20.364;2023-03-23T04:08:29;15.70;;;8.50;;
76117;SDS011;64851;50.232;20.364;2023-03-23T04:11:11;13.50;;;7.90;;
76117;SDS011;64851;50.232;20.364;2023-03-23T04:13:53;16.60;;;8.70;;
76117;SDS011;64851;50.232;20.364;2023-03-23T04:19:20;14.60;;;8.30;;
76117;SDS011;64851;50.232;20.364;2023-03-23T04:22:01;14.50;;;6.40;;
76117;SDS011;64851;50.232;20.364;2023-03-23T04:24:48;17.30;;;9.50;;
76117;SDS011;64851;50.232;20.364;2023-03-23T04:27:45;16.50;;;9.40;;
76117;SDS011;64851;50.232;20.364;2023-03-23T04:30:20;16.30;;;8.60;;
76117;SDS011;64851;50.232;20.364;2023-03-23T04:33:09;13.10;;;8.40;;
76117;SDS011;64851;50.232;20.364;2023-03-23T04:35:47;16.70;;;8.80;;
76117;SDS011;64851;50.232;20.364;2023-03-23T04:38:34;16.50;;;9.10;;
76117;SDS011;64851;50.232;20.364;2023-03-23T04:43:54;13.60;;;7.30;;
76117;SDS011;64851;50.232;20.364;2023-03-23T04:46:29;11.80;;;6.20;;
76117;SDS011;64851;50.232;20.364;2023-03-23T04:49:25;13.00;;;7.90;;
76117;SDS011;64851;50.232;20.364;2023-03-23T04:52:19;14.90;;;8.80;;
76117;SDS011;64851;50.232;20.364;2023-03-23T04:54:54;14.60;;;8.60;;
76117;SDS011;64851;50.232;20.364;2023-03-23T04:57:48;11.40;;;6.90;;
76117;SDS011;64851;50.232;20.364;2023-03-23T05:00:43;10.30;;;5.50;;
76117;SDS011;64851;50.232;20.364;2023-03-23T05:03:22;9.40;;;5.90;;
76117;SDS011;64851;50.232;20.364;2023-03-23T05:06:10;11.50;;;6.50;;
76117;SDS011;64851;50.232;20.364;2023-03-23T05:11:32;10.70;;;6.40;;
76117;SDS011;64851;50.232;20.364;2023-03-23T05:14:06;10.00;;;6.10;;
76117;SDS011;64851;50.232;20.364;2023-03-23T05:17:00;7.50;;;4.70;;
76117;SDS011;64851;50.232;20.364;2023-03-23T05:19:54;8.20;;;5.10;;
76117;SDS011;64851;50.232;20.364;2023-03-23T05:22:29;9.30;;;5.20;;
76117;SDS011;64851;50.232;20.364;2023-03-23T05:25:17;11.10;;;6.80;;
76117;SDS011;64851;50.232;20.364;2023-03-23T05:28:00;12.20;;;6.40;;
76117;SDS011;64851;50.232;20.364;2023-03-23T05:30:40;9.90;;;6.20;;
76117;SDS011;64851;50.232;20.364;2023-03-23T05:33:20;9.30;;;6.00;;
76117;SDS011;64851;50.232;20.364;2023-03-23T05:36:01;11.10;;;6.90;;
76117;SDS011;64851;50.232;20.364;2023-03-23T05:38:42;12.70;;;7.20;;
76117;SDS011;64851;50.232;20.364;2023-03-23T05:41:22;11.20;;;6.30;;
76117;SDS011;64851;50.232;20.364;2023-03-23T05:44:04;11.00;;;6.60;;
76117;SDS011;64851;50.232;20.364;2023-03-23T05:46:53;11.70;;;7.20;;
76117;SDS011;64851;50.232;20.364;2023-03-23T05:49:34;13.00;;;7.70;;
76117;SDS011;64851;50.232;20.364;2023-03-23T05:52:21;13.00;;;7.30;;
76117;SDS011;64851;50.232;20.364;2023-03-23T05:54:56;13.70;;;8.20;;
76117;SDS011;64851;50.232;20.364;2023-03-23T05:57:43;12.70;;;7.80;;
76117;SDS011;64851;50.232;20.364;2023-03-23T06:00:23;14.60;;;8.40;;
76117;SDS011;64851;50.232;20.364;2023-03-23T06:03:11;12.90;;;8.10;;
76117;SDS011;64851;50.232;20.364;2023-03-23T06:05:44;12.10;;;7.50;;
76117;SDS011;64851;50.232;20.364;2023-03-23T06:08:32;12.50;;;7.90;;
76117;SDS011;64851;50.232;20.364;2023-03-23T06:11:05;12.40;;;8.20;;
76117;SDS011;64851;50.232;20.364;2023-03-23T06:13:53;13.10;;;8.70;;
76117;SDS011;64851;50.232;20.364;2023-03-23T06:16:27;14.20;;;8.60;;
76117;SDS011;64851;50.232;20.364;2023-03-23T06:19:15;13.10;;;7.50;;
76117;SDS011;64851;50.232;20.364;2023-03-23T06:21:55;12.80;;;7.80;;
76117;SDS011;64851;50.232;20.364;2023-03-23T06:24:42;12.20;;;8.20;;
76117;SDS011;64851;50.232;20.364;2023-03-23T06:27:37;10.80;;;7.00;;
76117;SDS011;64851;50.232;20.364;2023-03-23T06:30:10;11.40;;;7.30;;
76117;SDS011;64851;50.232;20.364;2023-03-23T06:32:59;10.90;;;6.90;;
76117;SDS011;64851;50.232;20.364;2023-03-23T06:35:32;9.30;;;5.90;;
76117;SDS011;64851;50.232;20.364;2023-03-23T06:38:19;8.80;;;5.10;;
76117;SDS011;64851;50.232;20.364;2023-03-23T06:40:59;8.20;;;5.10;;
76117;SDS011;64851;50.232;20.364;2023-03-23T06:43:39;9.20;;;5.50;;
76117;SDS011;64851;50.232;20.364;2023-03-23T06:46:19;6.80;;;5.00;;
76117;SDS011;64851;50.232;20.364;2023-03-23T06:49:06;7.90;;;5.40;;
76117;SDS011;64851;50.232;20.364;2023-03-23T06:51:46;8.00;;;5.80;;
76117;SDS011;64851;50.232;20.364;2023-03-23T06:54:26;8.60;;;6.00;;
76117;SDS011;64851;50.232;20.364;2023-03-23T06:57:07;9.90;;;5.50;;
76117;SDS011;64851;50.232;20.364;2023-03-23T06:59:55;8.10;;;5.50;;
76117;SDS011;64851;50.232;20.364;2023-03-23T07:02:35;7.50;;;4.00;;
76117;SDS011;64851;50.232;20.364;2023-03-23T07:05:15;7.40;;;5.20;;
76117;SDS011;64851;50.232;20.364;2023-03-23T07:07:56;9.30;;;6.20;;
76117;SDS011;64851;50.232;20.364;2023-03-23T07:10:36;9.20;;;5.60;;
76117;SDS011;64851;50.232;20.364;2023-03-23T07:13:17;9.50;;;5.90;;
76117;SDS011;64851;50.232;20.364;2023-03-23T07:15:57;10.80;;;5.70;;
76117;SDS011;64851;50.232;20.364;2023-03-23T07:18:37;8.60;;;5.30;;
76117;SDS011;64851;50.232;20.364;2023-03-23T07:21:17;7.40;;;5.30;;
76117;SDS011;64851;50.232;20.364;2023-03-23T07:24:05;8.90;;;5.80;;
76117;SDS011;64851;50.232;20.364;2023-03-23T07:27:01;6.50;;;4.40;;
76117;SDS011;64851;50.232;20.364;2023-03-23T07:29:37;7.80;;;5.20;;
76117;SDS011;64851;50.232;20.364;2023-03-23T07:32:24;8.60;;;5.00;;
76117;SDS011;64851;50.232;20.364;2023-03-23T07:34:57;6.80;;;4.50;;
76117;SDS011;64851;50.232;20.364;2023-03-23T07:40:19;6.00;;;4.30;;
76117;SDS011;64851;50.232;20.364;2023-03-23T07:43:14;5.40;;;4.00;;
76117;SDS011;64851;50.232;20.364;2023-03-23T07:46:08;6.30;;;4.20;;
76117;SDS011;64851;50.232;20.364;2023-03-23T07:48:41;6.10;;;3.60;;
76117;SDS011;64851;50.232;20.364;2023-03-23T07:51:28;6.60;;;4.20;;
76117;SDS011;64851;50.232;20.364;2023-03-23T07:54:01;6.60;;;3.50;;
76117;SDS011;64851;50.232;20.364;2023-03-23T07:56:49;6.50;;;4.30;;
76117;SDS011;64851;50.232;20.364;2023-03-23T07:59:22;6.10;;;3.90;;
76117;SDS011;64851;50.232;20.364;2023-03-23T08:02:10;7.10;;;4.30;;
76117;SDS011;64851;50.232;20.364;2023-03-23T08:04:44;6.70;;;4.60;;
76117;SDS011;64851;50.232;20.364;2023-03-23T08:07:31;6.60;;;3.60;;
76117;SDS011;64851;50.232;20.364;2023-03-23T08:10:05;8.80;;;4.50;;
76117;SDS011;64851;50.232;20.364;2023-03-23T08:12:53;7.80;;;4.20;;
76117;SDS011;64851;50.232;20.364;2023-03-23T08:15:28;6.50;;;3.90;;
76117;SDS011;64851;50.232;20.364;2023-03-23T08:18:19;7.90;;;4.90;;
76117;SDS011;64851;50.232;20.364;2023-03-23T08:20:52;7.50;;;4.00;;
76117;SDS011;64851;50.232;20.364;2023-03-23T08:23:47;6.80;;;4.70;;
76117;SDS011;64851;50.232;20.364;2023-03-23T08:26:41;7.60;;;4.50;;
76117;SDS011;64851;50.232;20.364;2023-03-23T08:29:36;10.70;;;4.60;;
76117;SDS011;64851;50.232;20.364;2023-03-23T08:32:12;7.80;;;3.90;;
76117;SDS011;64851;50.232;20.364;2023-03-23T08:35:06;9.00;;;4.80;;
76117;SDS011;64851;50.232;20.364;2023-03-23T08:37:41;7.40;;;4.00;;
76117;SDS011;64851;50.232;20.364;2023-03-23T08:40:32;7.20;;;3.90;;
76117;SDS011;64851;50.232;20.364;2023-03-23T08:43:13;7.10;;;4.30;;
76117;SDS011;64851;50.232;20.364;2023-03-23T08:45:56;5.90;;;3.80;;
76117;SDS011;64851;50.232;20.364;2023-03-23T08:48:36;5.70;;;3.20;;
76117;SDS011;64851;50.232;20.364;2023-03-23T08:51:17;7.20;;;3.70;;
76117;SDS011;64851;50.232;20.364;2023-03-23T08:53:58;6.00;;;2.90;;
76117;SDS011;64851;50.232;20.364;2023-03-23T08:56:39;5.50;;;3.30;;
76117;SDS011;64851;50.232;20.364;2023-03-23T08:59:19;6.30;;;3.30;;
76117;SDS011;64851;50.232;20.364;2023-03-23T09:02:00;4.50;;;3.20;;
76117;SDS011;64851;50.232;20.364;2023-03-23T09:04:40;6.40;;;3.00;;
76117;SDS011;64851;50.232;20.364;2023-03-23T09:07:22;4.90;;;2.90;;
76117;SDS011;64851;50.232;20.364;2023-03-23T09:10:03;5.30;;;3.00;;
76117;SDS011;64851;50.232;20.364;2023-03-23T09:12:51;3.90;;;3.00;;
76117;SDS011;64851;50.232;20.364;2023-03-23T09:15:26;5.10;;;3.10;;
76117;SDS011;64851;50.232;20.364;2023-03-23T09:18:20;6.80;;;3.10;;
76117;SDS011;64851;50.232;20.364;2023-03-23T09:21:14;3.90;;;2.00;;
76117;SDS011;64851;50.232;20.364;2023-03-23T09:24:08;8.30;;;3.20;;
76117;SDS011;64851;50.232;20.364;2023-03-23T09:27:02;4.20;;;2.60;;
76117;SDS011;64851;50.232;20.364;2023-03-23T09:29:56;4.30;;;2.70;;
76117;SDS011;64851;50.232;20.364;2023-03-23T09:32:29;4.80;;;3.00;;
76117;SDS011;64851;50.232;20.364;2023-03-23T09:35:16;4.40;;;2.70;;
76117;SDS011;64851;50.232;20.364;2023-03-23T09:37:56;3.90;;;2.60;;
76117;SDS011;64851;50.232;20.364;2023-03-23T09:43:50;5.80;;;3.50;;
76117;SDS011;64851;50.232;20.364;2023-03-23T09:49:54;3.60;;;2.20;;
76117;SDS011;64851;50.232;20.364;2023-03-23T09:52:58;7.90;;;3.10;;
76117;SDS011;64851;50.232;20.364;2023-03-23T09:55:35;4.50;;;2.70;;
76117;SDS011;64851;50.232;20.364;2023-03-23T09:58:35;4.00;;;2.80;;
76117;SDS011;64851;50.232;20.364;2023-03-23T10:01:23;4.00;;;2.70;;
76117;SDS011;64851;50.232;20.364;2023-03-23T10:04:33;5.00;;;2.60;;
76117;SDS011;64851;50.232;20.364;2023-03-23T10:07:12;3.40;;;2.10;;
76117;SDS011;64851;50.232;20.364;2023-03-23T10:10:08;4.70;;;2.70;;
76117;SDS011;64851;50.232;20.364;2023-03-23T10:12:52;5.50;;;2.90;;
76117;SDS011;64851;50.232;20.364;2023-03-23T10:15:43;3.50;;;2.10;;
76117;SDS011;64851;50.232;20.364;2023-03-23T10:18:19;3.50;;;2.20;;
76117;SDS011;64851;50.232;20.364;2023-03-23T10:21:13;4.20;;;2.60;;
76117;SDS011;64851;50.232;20.364;2023-03-23T10:23:59;4.60;;;2.60;;
76117;SDS011;64851;50.232;20.364;2023-03-23T10:27:05;4.10;;;2.00;;
76117;SDS011;64851;50.232;20.364;2023-03-23T10:29:55;3.90;;;2.30;;
76117;SDS011;64851;50.232;20.364;2023-03-23T10:35:48;6.10;;;2.40;;
76117;SDS011;64851;50.232;20.364;2023-03-23T10:38:45;4.20;;;2.40;;
76117;SDS011;64851;50.232;20.364;2023-03-23T10:41:21;4.30;;;2.60;;
76117;SDS011;64851;50.232;20.364;2023-03-23T10:44:09;5.30;;;2.60;;
76117;SDS011;64851;50.232;20.364;2023-03-23T10:49:56;3.90;;;2.70;;
76117;SDS011;64851;50.232;20.364;2023-03-23T10:52:40;4.40;;;2.60;;
76117;SDS011;64851;50.232;20.364;2023-03-23T10:55:38;4.30;;;2.80;;
76117;SDS011;64851;50.232;20.364;2023-03-23T10:58:25;4.00;;;2.90;;
76117;SDS011;64851;50.232;20.364;2023-03-23T11:01:18;3.40;;;2.10;;
76117;SDS011;64851;50.232;20.364;2023-03-23T11:03:52;6.40;;;3.40;;
76117;SDS011;64851;50.232;20.364;2023-03-23T11:06:43;3.80;;;2.40;;
76117;SDS011;64851;50.232;20.364;2023-03-23T11:09:39;4.00;;;2.40;;
76117;SDS011;64851;50.232;20.364;2023-03-23T11:12:45;4.10;;;2.30;;
76117;SDS011;64851;50.232;20.364;2023-03-23T11:15:25;4.70;;;2.60;;
76117;SDS011;64851;50.232;20.364;2023-03-23T11:18:26;4.00;;;2.50;;
76117;SDS011;64851;50.232;20.364;2023-03-23T11:24:02;3.70;;;2.10;;
76117;SDS011;64851;50.232;20.364;2023-03-23T11:26:50;4.80;;;2.50;;
76117;SDS011;64851;50.232;20.364;2023-03-23T11:29:30;4.40;;;2.10;;
76117;SDS011;64851;50.232;20.364;2023-03-23T11:32:11;4.40;;;2.20;;
76117;SDS011;64851;50.232;20.364;2023-03-23T11:34:56;4.00;;;2.10;;
76117;SDS011;64851;50.232;20.364;2023-03-23T11:37:42;3.80;;;1.90;;
76117;SDS011;64851;50.232;20.364;2023-03-23T11:43:09;4.90;;;2.20;;
76117;SDS011;64851;50.232;20.364;2023-03-23T11:49:12;4.10;;;1.70;;
76117;SDS011;64851;50.232;20.364;2023-03-23T11:51:50;5.00;;;1.80;;
76117;SDS011;64851;50.232;20.364;2023-03-23T11:54:36;3.10;;;1.70;;
76117;SDS011;64851;50.232;20.364;2023-03-23T11:57:19;3.50;;;1.60;;
76117;SDS011;64851;50.232;20.364;2023-03-23T12:00:12;4.20;;;2.00;;
76117;SDS011;64851;50.232;20.364;2023-03-23T12:12:17;2.90;;;1.60;;
76117;SDS011;64851;50.232;20.364;2023-03-23T12:15:19;3.30;;;1.50;;
76117;SDS011;64851;50.232;20.364;2023-03-23T12:18:06;2.70;;;1.60;;
76117;SDS011;64851;50.232;20.364;2023-03-23T12:26:56;4.40;;;1.50;;
76117;SDS011;64851;50.232;20.364;2023-03-23T12:38:31;4.20;;;2.00;;
76117;SDS011;64851;50.232;20.364;2023-03-23T12:41:15;3.40;;;1.40;;
76117;SDS011;64851;50.232;20.364;2023-03-23T12:43:59;5.10;;;1.60;;
76117;SDS011;64851;50.232;20.364;2023-03-23T12:49:51;4.50;;;1.30;;
76117;SDS011;64851;50.232;20.364;2023-03-23T12:55:37;3.40;;;1.50;;
76117;SDS011;64851;50.232;20.364;2023-03-23T12:58:26;2.80;;;1.00;;
76117;SDS011;64851;50.232;20.364;2023-03-23T13:06:45;4.60;;;1.70;;
76117;SDS011;64851;50.232;20.364;2023-03-23T13:09:49;6.10;;;1.60;;
76117;SDS011;64851;50.232;20.364;2023-03-23T13:12:35;4.10;;;1.70;;
76117;SDS011;64851;50.232;20.364;2023-03-23T13:24:21;3.10;;;1.00;;
76117;SDS011;64851;50.232;20.364;2023-03-23T13:27:17;3.40;;;1.30;;
76117;SDS011;64851;50.232;20.364;2023-03-23T13:29:50;4.10;;;1.30;;
76117;SDS011;64851;50.232;20.364;2023-03-23T13:32:38;4.00;;;1.40;;
76117;SDS011;64851;50.232;20.364;2023-03-23T13:35:14;11.80;;;4.60;;
76117;SDS011;64851;50.232;20.364;2023-03-23T13:38:18;3.50;;;1.30;;
76117;SDS011;64851;50.232;20.364;2023-03-23T13:40:54;3.80;;;1.70;;
76117;SDS011;64851;50.232;20.364;2023-03-23T13:43:42;4.20;;;2.10;;
76117;SDS011;64851;50.232;20.364;2023-03-23T14:03:19;2.90;;;1.30;;
76117;SDS011;64851;50.232;20.364;2023-03-23T14:06:05;3.20;;;1.20;;
76117;SDS011;64851;50.232;20.364;2023-03-23T14:08:53;4.60;;;2.30;;
76117;SDS011;64851;50.232;20.364;2023-03-23T14:11:45;5.80;;;2.10;;
76117;SDS011;64851;50.232;20.364;2023-03-23T14:14:56;24.30;;;11.40;;
76117;SDS011;64851;50.232;20.364;2023-03-23T14:17:46;9.50;;;5.30;;
76117;SDS011;64851;50.232;20.364;2023-03-23T14:20:25;4.30;;;2.20;;
76117;SDS011;64851;50.232;20.364;2023-03-23T14:23:16;2.90;;;1.20;;
76117;SDS011;64851;50.232;20.364;2023-03-23T14:25:55;2.50;;;1.20;;
76117;SDS011;64851;50.232;20.364;2023-03-23T14:28:53;4.70;;;1.90;;
76117;SDS011;64851;50.232;20.364;2023-03-23T14:31:53;3.20;;;1.80;;
76117;SDS011;64851;50.232;20.364;2023-03-23T14:34:29;3.50;;;1.70;;
76117;SDS011;64851;50.232;20.364;2023-03-23T14:37:18;4.60;;;2.10;;
76117;SDS011;64851;50.232;20.364;2023-03-23T14:39:53;8.10;;;3.40;;
76117;SDS011;64851;50.232;20.364;2023-03-23T14:42:50;5.90;;;3.20;;
76117;SDS011;64851;50.232;20.364;2023-03-23T14:45:44;4.40;;;1.80;;
76117;SDS011;64851;50.232;20.364;2023-03-23T14:48:21;3.80;;;1.70;;
76117;SDS011;64851;50.232;20.364;2023-03-23T14:51:14;6.40;;;2.50;;
76117;SDS011;64851;50.232;20.364;2023-03-23T14:53:52;4.70;;;2.40;;
76117;SDS011;64851;50.232;20.364;2023-03-23T14:56:41;4.60;;;2.40;;
76117;SDS011;64851;50.232;20.364;2023-03-23T14:59:16;4.40;;;1.70;;
76117;SDS011;64851;50.232;20.364;2023-03-23T15:02:04;5.50;;;2.00;;
76117;SDS011;64851;50.232;20.364;2023-03-23T15:04:37;5.20;;;2.60;;
76117;SDS011;64851;50.232;20.364;2023-03-23T15:07:32;5.90;;;2.80;;
76117;SDS011;64851;50.232;20.364;2023-03-23T15:10:28;5.70;;;2.90;;
76117;SDS011;64851;50.232;20.364;2023-03-23T15:13:01;4.60;;;2.40;;
76117;SDS011;64851;50.232;20.364;2023-03-23T15:15:48;4.20;;;1.90;;
76117;SDS011;64851;50.232;20.364;2023-03-23T15:18:31;3.80;;;1.80;;
76117;SDS011;64851;50.232;20.364;2023-03-23T15:21:36;5.90;;;2.10;;
76117;SDS011;64851;50.232;20.364;2023-03-23T15:24:24;6.00;;;2.50;;
76117;SDS011;64851;50.232;20.364;2023-03-23T15:27:25;3.90;;;1.70;;
76117;SDS011;64851;50.232;20.364;2023-03-23T15:30:28;4.20;;;1.80;;
76117;SDS011;64851;50.232;20.364;2023-03-23T15:33:24;5.00;;;2.10;;
76117;SDS011;64851;50.232;20.364;2023-03-23T15:36:05;7.40;;;3.60;;
76117;SDS011;64851;50.232;20.364;2023-03-23T15:38:55;3.90;;;1.80;;
76117;SDS011;64851;50.232;20.364;2023-03-23T15:41:45;8.60;;;2.90;;
76117;SDS011;64851;50.232;20.364;2023-03-23T15:44:30;5.00;;;3.30;;
76117;SDS011;64851;50.232;20.364;2023-03-23T15:47:16;4.40;;;2.10;;
76117;SDS011;64851;50.232;20.364;2023-03-23T15:50:17;4.00;;;1.80;;
76117;SDS011;64851;50.232;20.364;2023-03-23T15:52:59;14.80;;;5.10;;
76117;SDS011;64851;50.232;20.364;2023-03-23T15:55:40;7.50;;;3.90;;
76117;SDS011;64851;50.232;20.364;2023-03-23T15:58:20;6.00;;;3.10;;
76117;SDS011;64851;50.232;20.364;2023-03-23T16:01:03;8.10;;;3.80;;
76117;SDS011;64851;50.232;20.364;2023-03-23T16:03:48;8.10;;;3.90;;
76117;SDS011;64851;50.232;20.364;2023-03-23T16:06:45;7.10;;;3.20;;
76117;SDS011;64851;50.232;20.364;2023-03-23T16:09:40;6.60;;;2.60;;
76117;SDS011;64851;50.232;20.364;2023-03-23T16:12:18;10.10;;;4.50;;
76117;SDS011;64851;50.232;20.364;2023-03-23T16:15:07;6.90;;;3.30;;
76117;SDS011;64851;50.232;20.364;2023-03-23T16:17:43;9.90;;;4.10;;
76117;SDS011;64851;50.232;20.364;2023-03-23T16:20:38;13.60;;;7.90;;
76117;SDS011;64851;50.232;20.364;2023-03-23T16:23:12;15.30;;;7.40;;
76117;SDS011;64851;50.232;20.364;2023-03-23T16:26:08;12.70;;;6.90;;
76117;SDS011;64851;50.232;20.364;2023-03-23T16:29:07;14.30;;;7.00;;
76117;SDS011;64851;50.232;20.364;2023-03-23T16:32:04;13.10;;;6.40;;
76117;SDS011;64851;50.232;20.364;2023-03-23T16:35:00;14.10;;;7.50;;
76117;SDS011;64851;50.232;20.364;2023-03-23T16:37:55;14.20;;;6.90;;
76117;SDS011;64851;50.232;20.364;2023-03-23T16:40:36;12.80;;;5.30;;
76117;SDS011;64851;50.232;20.364;2023-03-23T16:43:24;15.50;;;7.30;;
76117;SDS011;64851;50.232;20.364;2023-03-23T16:45:58;16.90;;;6.90;;
76117;SDS011;64851;50.232;20.364;2023-03-23T16:48:47;14.20;;;6.20;;
76117;SDS011;64851;50.232;20.364;2023-03-23T16:51:21;15.00;;;7.40;;
76117;SDS011;64851;50.232;20.364;2023-03-23T16:54:17;20.80;;;8.70;;
76117;SDS011;64851;50.232;20.364;2023-03-23T16:57:13;15.80;;;7.90;;
76117;SDS011;64851;50.232;20.364;2023-03-23T16:59:47;19.60;;;8.00;;
76117;SDS011;64851;50.232;20.364;2023-03-23T17:02:39;15.10;;;6.90;;
76117;SDS011;64851;50.232;20.364;2023-03-23T17:05:23;15.10;;;7.40;;
76117;SDS011;64851;50.232;20.364;2023-03-23T17:08:06;15.70;;;7.60;;
76117;SDS011;64851;50.232;20.364;2023-03-23T17:10:48;19.60;;;8.90;;
76117;SDS011;64851;50.232;20.364;2023-03-23T17:13:36;16.50;;;7.80;;
76117;SDS011;64851;50.232;20.364;2023-03-23T17:16:11;15.50;;;7.50;;
76117;SDS011;64851;50.232;20.364;2023-03-23T17:19:00;15.60;;;8.90;;
76117;SDS011;64851;50.232;20.364;2023-03-23T17:21:41;17.70;;;9.30;;
76117;SDS011;64851;50.232;20.364;2023-03-23T17:24:22;20.00;;;9.90;;
76117;SDS011;64851;50.232;20.364;2023-03-23T17:27:10;20.20;;;11.60;;
76117;SDS011;64851;50.232;20.364;2023-03-23T17:30:05;37.00;;;18.80;;
76117;SDS011;64851;50.232;20.364;2023-03-23T17:32:40;27.10;;;14.80;;
76117;SDS011;64851;50.232;20.364;2023-03-23T17:35:29;9.50;;;5.30;;
76117;SDS011;64851;50.232;20.364;2023-03-23T17:38:03;15.10;;;8.10;;
76117;SDS011;64851;50.232;20.364;2023-03-23T17:40:57;12.80;;;7.30;;
76117;SDS011;64851;50.232;20.364;2023-03-23T17:43:32;15.00;;;8.00;;
76117;SDS011;64851;50.232;20.364;2023-03-23T17:46:22;13.70;;;7.70;;
76117;SDS011;64851;50.232;20.364;2023-03-23T17:48:58;16.10;;;8.10;;
76117;SDS011;64851;50.232;20.364;2023-03-23T17:51:53;11.50;;;7.90;;
76117;SDS011;64851;50.232;20.364;2023-03-23T17:54:48;13.70;;;6.80;;
76117;SDS011;64851;50.232;20.364;2023-03-23T17:57:22;12.70;;;7.40;;
76117;SDS011;64851;50.232;20.364;2023-03-23T18:00:10;12.40;;;7.20;;
76117;SDS011;64851;50.232;20.364;2023-03-23T18:02:46;13.90;;;6.80;;
76117;SDS011;64851;50.232;20.364;2023-03-23T18:05:39;14.40;;;7.80;;
76117;SDS011;64851;50.232;20.364;2023-03-23T18:08:14;17.30;;;9.70;;
76117;SDS011;64851;50.232;20.364;2023-03-23T18:11:02;18.70;;;10.30;;
76117;SDS011;64851;50.232;20.364;2023-03-23T18:13:36;18.30;;;11.20;;
76117;SDS011;64851;50.232;20.364;2023-03-23T18:16:25;20.00;;;10.60;;
76117;SDS011;64851;50.232;20.364;2023-03-23T18:19:06;16.80;;;10.10;;